Time;durP1;ratioP1;P1;durP2;ratioP2;P2;SDS_P1;SDS_P2;PMS_P1;PMS_P2;Temp;Humidity;BMP_temperature;BMP_pressure;BME280_temperature;BME280_humidity;BME280_pressure;Samples;Min_cycle;Max_cycle;Signal;HPM_P1;HPM_P2
2023/03/01 00:01:22;;;;;;;78.93;34.03;;;;;;;5.93;100.00;94553.47;5076288;28;20032;-86
2023/03/01 00:03:48;;;;;;;72.82;33.03;;;;;;;5.88;100.00;94548.19;5076208;28;20035;-86
2023/03/01 00:06:13;;;;;;;86.55;34.80;;;;;;;6.01;100.00;94554.94;5076116;28;20361;-86
2023/03/01 00:08:39;;;;;;;91.80;36.85;;;;;;;5.80;100.00;94554.53;5076063;28;20426;-86
2023/03/01 00:11:04;;;;;;;98.15;39.75;;;;;;;5.85;100.00;94547.84;5075212;28;20036;-86
2023/03/01 00:13:30;;;;;;;109.45;44.10;;;;;;;5.77;100.00;94549.00;5077159;28;20456;-86
2023/03/01 00:15:56;;;;;;;101.10;40.88;;;;;;;5.84;100.00;94541.06;5076984;28;20335;-86
2023/03/01 00:18:22;;;;;;;105.78;42.70;;;;;;;5.89;100.00;94551.59;5075793;28;20080;-86
2023/03/01 00:20:52;;;;;;;111.97;45.80;;;;;;;5.91;100.00;94546.94;5075858;28;20032;-86
2023/03/01 00:23:18;;;;;;;114.68;45.70;;;;;;;5.57;100.00;94539.81;5075820;28;20353;-85
2023/03/01 00:25:43;;;;;;;132.10;46.95;;;;;;;5.54;100.00;94539.50;5077004;28;20036;-86
2023/03/01 00:28:09;;;;;;;130.48;46.10;;;;;;;5.93;100.00;94548.25;5059345;28;20047;-86
2023/03/01 00:30:34;;;;;;;116.55;44.22;;;;;;;5.88;100.00;94537.78;5075542;28;20412;-86
2023/03/01 00:32:59;;;;;;;115.60;44.75;;;;;;;5.83;100.00;94527.31;5075951;28;20032;-86
2023/03/01 00:35:25;;;;;;;105.78;43.78;;;;;;;5.79;100.00;94526.97;5075729;28;20032;-86
2023/03/01 00:37:57;;;;;;;103.25;41.75;;;;;;;6.00;100.00;94532.53;5075881;28;20036;-86
2023/03/01 00:40:26;;;;;;;116.28;44.50;;;;;;;5.78;100.00;94527.19;5075670;28;20060;-86
2023/03/01 00:42:52;;;;;;;115.82;44.67;;;;;;;5.56;100.00;94521.84;5059140;28;20035;-86
2023/03/01 00:45:17;;;;;;;117.88;46.15;;;;;;;5.70;100.00;94523.16;5076738;28;20119;-86
2023/03/01 00:47:43;;;;;;;117.82;44.45;;;;;;;5.75;100.00;94515.47;5075749;28;20028;-86
2023/03/01 00:50:10;;;;;;;112.35;45.42;;;;;;;5.79;100.00;94515.78;5058788;28;20028;-86
2023/03/01 00:52:35;;;;;;;124.82;46.50;;;;;;;5.58;100.00;94506.81;5075487;28;20028;-86
2023/03/01 00:55:01;;;;;;;128.68;48.05;;;;;;;5.48;100.00;94505.63;5059016;28;20073;-86
2023/03/01 00:57:26;;;;;;;124.05;46.20;;;;;;;5.61;100.00;94504.53;5075405;28;20036;-86
2023/03/01 00:59:52;;;;;;;119.15;46.20;;;;;;;5.48;100.00;94505.63;5075237;28;20381;-86
2023/03/01 01:02:19;;;;;;;130.23;47.75;;;;;;;5.45;100.00;94513.06;5058913;28;20039;-86
2023/03/01 01:04:45;;;;;;;125.13;47.45;;;;;;;5.86;100.00;94516.44;5058863;28;20113;-86
2023/03/01 01:07:11;;;;;;;117.38;47.55;;;;;;;5.94;100.00;94503.03;5075281;28;20342;-86
2023/03/01 01:09:36;;;;;;;127.18;48.42;;;;;;;5.74;100.00;94505.28;5075186;28;20040;-86
2023/03/01 01:12:02;;;;;;;138.05;49.13;;;;;;;5.07;100.00;94484.03;5059058;28;20036;-86
2023/03/01 01:14:28;;;;;;;149.98;51.22;;;;;;;5.41;100.00;94489.34;5075333;28;20037;-86
2023/03/01 01:16:53;;;;;;;130.25;48.05;;;;;;;5.78;100.00;94486.41;5075296;28;20032;-86
2023/03/01 01:19:19;;;;;;;145.27;51.15;;;;;;;5.46;100.00;94486.88;5075057;28;20115;-86
2023/03/01 01:21:44;;;;;;;152.68;54.83;;;;;;;5.34;100.00;94475.72;5059420;28;20033;-86
2023/03/01 01:24:11;;;;;;;146.25;52.28;;;;;;;5.46;100.00;94475.69;5062761;28;20086;-86
2023/03/01 01:26:36;;;;;;;151.27;52.13;;;;;;;5.23;100.00;94469.53;5062715;28;20070;-86
2023/03/01 01:29:04;;;;;;;160.70;53.72;;;;;;;5.56;100.00;94469.88;5079028;28;20056;-86
2023/03/01 01:31:30;;;;;;;153.95;53.10;;;;;;;5.56;100.00;94472.47;5079051;28;20318;-86
2023/03/01 01:33:56;;;;;;;154.00;54.30;;;;;;;5.28;100.00;94459.25;5062550;28;20028;-86
2023/03/01 01:36:22;;;;;;;166.20;56.25;;;;;;;5.35;100.00;94453.91;5078955;28;20131;-86
2023/03/01 01:38:48;;;;;;;157.32;53.30;;;;;;;5.21;100.00;94446.41;5078864;28;20452;-86
2023/03/01 01:41:14;;;;;;;151.93;53.05;;;;;;;5.30;100.00;94438.22;5058690;28;20033;-86
2023/03/01 01:43:41;;;;;;;146.30;50.35;;;;;;;5.04;100.00;94437.75;5059380;28;20040;-86
2023/03/01 01:46:30;;;;;;;154.95;54.25;;;;;;;5.69;100.00;94438.38;5063067;28;20360;-85
2023/03/01 01:49:00;;;;;;;147.90;49.85;;;;;;;5.06;100.00;94438.31;5042140;28;20029;-86
2023/03/01 01:51:37;;;;;;;150.85;52.63;;;;;;;5.73;100.00;94444.69;5068321;28;20412;-86
2023/03/01 01:54:07;;;;;;;147.85;51.65;;;;;;;5.58;100.00;94441.84;5058077;28;20036;-86
2023/03/01 01:56:33;;;;;;;146.55;49.40;;;;;;;5.50;100.00;94437.81;5071774;28;20127;-86
2023/03/01 01:58:58;;;;;;;145.90;50.72;;;;;;;5.46;100.00;94429.69;5079443;28;20071;-86
2023/03/01 02:01:24;;;;;;;147.93;49.95;;;;;;;5.39;100.00;94423.84;5078476;28;20036;-86
2023/03/01 02:03:50;;;;;;;151.27;52.55;;;;;;;5.27;100.00;94426.50;5078584;28;20029;-86
2023/03/01 02:06:28;;;;;;;124.05;45.95;;;;;;;5.71;100.00;94418.16;5078348;28;20034;-86
2023/03/01 02:08:57;;;;;;;118.80;45.17;;;;;;;5.48;100.00;94419.06;5047804;28;20457;-86
2023/03/01 02:11:23;;;;;;;104.35;39.97;;;;;;;5.09;100.00;94419.66;5044015;28;20330;-85
2023/03/01 02:13:49;;;;;;;106.03;41.35;;;;;;;5.41;100.00;94414.00;5058084;28;20036;-86
2023/03/01 02:16:15;;;;;;;111.10;42.03;;;;;;;5.12;100.00;94423.63;5058013;28;20033;-86
2023/03/01 02:18:42;;;;;;;98.90;39.40;;;;;;;5.26;100.00;94416.31;5041102;28;20029;-86
2023/03/01 02:21:26;;;;;;;109.03;42.08;;;;;;;5.70;100.00;94419.16;5057899;28;20362;-86
2023/03/01 02:23:54;;;;;;;106.40;39.90;;;;;;;5.45;100.00;94409.94;5057980;28;20135;-86
2023/03/01 02:26:42;;;;;;;109.38;41.60;;;;;;;5.73;100.00;94410.91;5041341;28;20076;-86
2023/03/01 02:29:08;;;;;;;106.40;42.55;;;;;;;5.57;100.00;94398.66;5057897;28;20021;-86
2023/03/01 02:31:42;;;;;;;110.28;42.20;;;;;;;5.34;100.00;94398.56;5057552;28;20031;-86
2023/03/01 02:34:15;;;;;;;113.07;42.65;;;;;;;5.57;100.00;94398.66;5056907;28;20112;-86
2023/03/01 02:36:47;;;;;;;99.55;40.33;;;;;;;5.65;100.00;94393.88;5041536;28;20059;-86
2023/03/01 02:39:45;;;;;;;115.07;39.97;;;;;;;5.61;100.00;94399.81;5041157;28;20037;-86
2023/03/01 02:42:13;;;;;;;102.35;39.33;;;;;;;5.05;100.00;94390.75;5040940;28;20025;-86
2023/03/01 02:44:38;;;;;;;103.88;38.97;;;;;;;5.32;100.00;94389.44;5057684;28;20021;-86
2023/03/01 02:47:05;;;;;;;107.65;40.85;;;;;;;5.28;100.00;94385.72;5040640;28;20082;-86
2023/03/01 02:49:34;;;;;;;106.00;40.88;;;;;;;5.23;100.00;94376.81;5058296;28;20032;-86
2023/03/01 02:52:22;;;;;;;113.82;45.45;;;;;;;5.30;100.00;94381.88;5058656;28;20035;-85
2023/03/01 02:55:06;;;;;;;112.93;42.55;;;;;;;5.24;100.00;94375.78;5058604;28;20475;-86
2023/03/01 02:57:33;;;;;;;118.63;43.38;;;;;;;4.80;100.00;94376.28;5057477;28;20033;-86
2023/03/01 03:00:06;;;;;;;119.40;44.25;;;;;;;4.88;100.00;94372.56;5040539;28;20024;-86
2023/03/01 03:02:35;;;;;;;120.88;43.33;;;;;;;5.23;100.00;94369.03;5057440;28;20036;-86
2023/03/01 03:05:23;;;;;;;113.03;41.60;;;;;;;5.03;100.00;94363.47;5041188;28;20127;-86
2023/03/01 03:07:49;;;;;;;119.32;43.72;;;;;;;5.01;100.00;94365.47;5040763;28;20032;-86
2023/03/01 03:10:19;;;;;;;110.93;41.13;;;;;;;5.12;100.00;94356.88;5056938;28;20029;-86
2023/03/01 03:12:49;;;;;;;116.38;40.95;;;;;;;4.78;100.00;94360.13;5057024;28;20438;-86
2023/03/01 03:15:14;;;;;;;112.53;41.67;;;;;;;4.65;100.00;94358.59;5057000;28;20044;-85
2023/03/01 03:17:41;;;;;;;107.93;39.50;;;;;;;4.75;100.00;94358.00;5051394;28;20120;-85
2023/03/01 03:20:11;;;;;;;100.30;38.20;;;;;;;4.73;100.00;94359.25;5040465;28;20021;-86
2023/03/01 03:22:39;;;;;;;97.78;36.17;;;;;;;4.75;100.00;94352.81;5056829;28;20036;-86
2023/03/01 03:25:05;;;;;;;98.55;38.88;;;;;;;4.92;100.00;94352.88;5040657;28;20415;-85
2023/03/01 03:27:31;;;;;;;112.32;38.85;;;;;;;5.12;100.00;94356.09;5056977;28;20024;-86
2023/03/01 03:29:57;;;;;;;97.57;37.22;;;;;;;4.24;100.00;94360.38;5056732;28;20024;-85
2023/03/01 03:32:22;;;;;;;93.50;36.72;;;;;;;4.02;100.00;94355.78;5056808;28;20032;-85
2023/03/01 03:34:49;;;;;;;89.13;35.85;;;;;;;3.91;100.00;94349.56;5056766;28;20438;-86
2023/03/01 03:38:01;;;;;;;84.13;33.85;;;;;;;4.73;100.00;94354.06;5056734;28;20108;-85
2023/03/01 03:39:59;;;;;;;74.75;31.35;;;;;;;4.27;100.00;94346.94;5057723;28;20108;-85
2023/03/01 03:42:25;;;;;;;80.55;33.85;;;;;;;4.78;100.00;94352.34;5056702;28;20126;-86
2023/03/01 03:44:50;;;;;;;81.90;32.28;;;;;;;4.66;100.00;94336.81;5040193;28;20031;-86
2023/03/01 03:47:15;;;;;;;82.60;32.03;;;;;;;5.00;100.00;94349.13;5081169;28;20425;-85
2023/03/01 03:49:41;;;;;;;76.68;31.33;;;;;;;4.74;100.00;94345.28;5059734;28;20032;-86
2023/03/01 03:52:13;;;;;;;80.20;34.30;;;;;;;4.63;100.00;94339.09;5076423;28;20025;-86
2023/03/01 03:54:40;;;;;;;74.22;32.05;;;;;;;4.82;100.00;94331.94;5077639;28;20028;-85
2023/03/01 03:57:07;;;;;;;80.82;32.38;;;;;;;4.61;100.00;94331.56;5076888;28;20020;-86
2023/03/01 03:59:32;;;;;;;95.65;36.72;;;;;;;3.90;100.00;94321.28;5077234;28;20028;-86
2023/03/01 04:01:58;;;;;;;92.82;36.72;;;;;;;4.40;100.00;94314.78;5076276;28;20457;-86
2023/03/01 04:04:23;;;;;;;87.60;35.53;;;;;;;4.31;100.00;94316.97;5056141;28;20033;-86
2023/03/01 04:06:49;;;;;;;94.85;37.70;;;;;;;4.30;100.00;94315.34;5064729;28;20070;-86
2023/03/01 04:09:14;;;;;;;101.25;38.72;;;;;;;4.08;100.00;94315.97;5073380;28;20028;-86
2023/03/01 04:11:40;;;;;;;105.82;40.65;;;;;;;4.02;100.00;94308.31;5054105;28;20036;-86
2023/03/01 04:14:05;;;;;;;104.63;38.83;;;;;;;3.90;100.00;94311.69;5070930;28;20032;-86
2023/03/01 04:16:30;;;;;;;108.70;39.10;;;;;;;4.20;100.00;94309.97;5073028;28;20028;-86
2023/03/01 04:18:59;;;;;;;102.95;39.42;;;;;;;4.20;100.00;94307.38;5061764;28;20127;-86
2023/03/01 04:21:25;;;;;;;103.70;40.53;;;;;;;4.46;100.00;94298.28;5039974;28;20087;-86
2023/03/01 04:23:52;;;;;;;104.82;40.38;;;;;;;4.22;100.00;94302.75;5039423;28;20331;-86
2023/03/01 04:26:27;;;;;;;104.80;37.97;;;;;;;4.34;100.00;94313.09;5055858;28;20112;-86
2023/03/01 04:28:52;;;;;;;103.10;39.70;;;;;;;4.29;100.00;94313.78;5055699;28;20024;-86
2023/03/01 04:31:20;;;;;;;104.85;42.08;;;;;;;4.64;100.00;94314.72;5055704;28;20025;-86
2023/03/01 04:33:51;;;;;;;110.53;40.65;;;;;;;4.03;100.00;94305.50;5039466;28;20033;-86
2023/03/01 04:36:18;;;;;;;108.15;41.30;;;;;;;4.21;100.00;94306.38;5039293;28;20342;-86
2023/03/01 04:38:47;;;;;;;98.53;40.85;;;;;;;4.30;100.00;94309.41;5055537;28;20036;-86
2023/03/01 04:41:14;;;;;;;102.07;39.10;;;;;;;3.92;100.00;94311.47;5039539;28;20033;-86
2023/03/01 04:43:39;;;;;;;101.82;40.55;;;;;;;3.87;100.00;94312.16;5055560;28;20323;-86
2023/03/01 04:46:08;;;;;;;99.38;37.38;;;;;;;4.33;100.00;94312.31;5038920;28;20074;-85
2023/03/01 04:48:35;;;;;;;100.15;39.75;;;;;;;4.52;100.00;94318.16;5055403;28;20052;-86
2023/03/01 04:51:01;;;;;;;102.50;38.88;;;;;;;4.21;100.00;94316.75;5039071;28;20029;-86
2023/03/01 04:53:27;;;;;;;89.53;34.85;;;;;;;4.57;100.00;94311.47;5039082;28;20358;-86
2023/03/01 04:55:54;;;;;;;92.07;36.67;;;;;;;3.94;100.00;94306.84;5068789;28;20494;-86
2023/03/01 04:58:19;;;;;;;88.75;35.17;;;;;;;4.25;100.00;94307.47;5091845;28;20042;-86
2023/03/01 05:00:45;;;;;;;86.40;36.08;;;;;;;4.27;100.00;94318.41;5078926;28;20310;-86
2023/03/01 05:03:10;;;;;;;95.53;37.05;;;;;;;4.61;100.00;94315.97;5095687;28;20028;-85
2023/03/01 05:05:37;;;;;;;96.22;36.45;;;;;;;4.52;100.00;94319.94;5078976;28;20023;-86
2023/03/01 05:08:07;;;;;;;91.32;36.67;;;;;;;4.28;100.00;94316.63;5095536;28;20425;-86
2023/03/01 05:10:35;;;;;;;93.07;36.88;;;;;;;4.20;100.00;94315.94;5095862;28;20364;-86
2023/03/01 05:13:02;;;;;;;91.00;36.10;;;;;;;4.65;100.00;94317.09;5078934;28;20425;-86
2023/03/01 05:15:30;;;;;;;86.70;34.28;;;;;;;4.10;100.00;94305.38;5095477;28;20429;-86
2023/03/01 05:18:00;;;;;;;83.65;34.60;;;;;;;3.72;100.00;94307.41;5095465;28;20020;-86
2023/03/01 05:20:26;;;;;;;77.75;32.75;;;;;;;4.56;100.00;94315.88;5078994;28;20334;-86
2023/03/01 05:22:55;;;;;;;77.32;34.28;;;;;;;4.64;100.00;94315.50;5095486;28;20028;-86
2023/03/01 05:25:21;;;;;;;86.45;35.10;;;;;;;4.19;100.00;94314.38;5078756;28;20077;-86
2023/03/01 05:27:47;;;;;;;84.95;33.88;;;;;;;4.17;100.00;94311.22;5078796;28;20023;-87
2023/03/01 05:30:16;;;;;;;80.30;33.13;;;;;;;4.59;100.00;94317.22;5089505;28;20029;-86
2023/03/01 05:32:48;;;;;;;73.80;32.15;;;;;;;4.41;100.00;94312.97;5059121;28;20069;-86
2023/03/01 05:35:16;;;;;;;74.35;31.50;;;;;;;4.65;100.00;94316.28;5070701;28;20031;-86
2023/03/01 05:37:46;;;;;;;71.15;30.98;;;;;;;4.66;100.00;94318.66;5075106;28;20036;-85
2023/03/01 05:40:17;;;;;;;67.68;29.95;;;;;;;4.40;100.00;94309.59;5054944;28;20025;-85
2023/03/01 05:42:47;;;;;;;70.85;30.92;;;;;;;4.34;100.00;94308.72;5055706;28;20180;-85
2023/03/01 05:45:13;;;;;;;70.95;30.95;;;;;;;3.96;100.00;94299.63;5055037;28;20092;-85
2023/03/01 05:47:46;;;;;;;69.63;30.70;;;;;;;4.53;100.00;94313.72;5038361;28;20457;-85
2023/03/01 05:50:19;;;;;;;;;;;;;;;4.32;100.00;94308.16;5055120;28;20071;-85
2023/03/01 05:52:46;;;;;;;73.90;29.92;;;;;;;4.44;100.00;94302.13;5054843;28;20309;-85
2023/03/01 05:55:11;;;;;;;80.70;32.65;;;;;;;4.34;100.00;94290.56;5054826;28;20025;-86
2023/03/01 05:57:37;;;;;;;71.90;30.98;;;;;;;3.72;100.00;94284.06;5054728;28;20357;-85
2023/03/01 06:00:03;;;;;;;75.15;30.15;;;;;;;3.87;100.00;94298.38;5055729;28;20374;-87
2023/03/01 06:02:29;;;;;;;77.05;32.17;;;;;;;3.66;100.00;94290.97;5055124;28;20036;-86
2023/03/01 06:04:55;;;;;;;75.95;30.98;;;;;;;3.76;100.00;94294.78;5054703;28;20036;-86
2023/03/01 06:07:21;;;;;;;74.55;31.73;;;;;;;4.24;100.00;94298.13;5055006;28;20040;-87
2023/03/01 06:09:46;;;;;;;71.22;31.13;;;;;;;3.72;100.00;94297.03;5057074;28;20350;-86
2023/03/01 06:12:12;;;;;;;74.72;32.47;;;;;;;4.48;100.00;94303.28;5058309;28;20021;-86
2023/03/01 06:14:37;;;;;;;73.35;31.23;;;;;;;4.14;100.00;94300.50;5058358;28;20025;-85
2023/03/01 06:17:03;;;;;;;65.03;29.08;;;;;;;4.15;100.00;94299.47;5058264;28;20021;-85
2023/03/01 06:19:28;;;;;;;66.18;29.58;;;;;;;4.33;100.00;94299.34;5058017;28;20021;-89
2023/03/01 06:21:54;;;;;;;70.22;29.98;;;;;;;4.42;100.00;94306.75;5058370;28;20354;-88
2023/03/01 06:24:19;;;;;;;70.95;29.15;;;;;;;4.07;100.00;94306.59;5058604;28;20037;-89
2023/03/01 06:26:45;;;;;;;63.15;29.17;;;;;;;4.37;100.00;94305.66;5062110;28;20430;-88
2023/03/01 06:29:10;;;;;;;63.25;28.65;;;;;;;3.60;100.00;94301.44;5078276;28;20017;-87
2023/03/01 06:31:35;;;;;;;62.47;27.75;;;;;;;4.06;100.00;94309.41;5078278;28;20032;-87
2023/03/01 06:34:01;;;;;;;65.57;29.55;;;;;;;3.96;100.00;94313.38;5078203;28;20038;-89
2023/03/01 06:36:27;;;;;;;63.63;27.83;;;;;;;3.95;100.00;94304.03;5077973;28;20495;-87
2023/03/01 06:38:52;;;;;;;62.35;28.58;;;;;;;3.71;100.00;94303.22;5058053;28;20056;-87
2023/03/01 06:41:17;;;;;;;71.55;31.13;;;;;;;3.96;100.00;94315.97;5057807;28;20025;-87
2023/03/01 06:43:43;;;;;;;68.63;29.02;;;;;;;4.09;100.00;94309.75;5070279;28;20040;-88
2023/03/01 06:46:08;;;;;;;66.25;29.20;;;;;;;4.08;100.00;94308.19;5077778;28;20033;-88
2023/03/01 06:48:34;;;;;;;65.68;29.10;;;;;;;4.09;100.00;94322.72;5077646;28;20033;-89
2023/03/01 06:51:00;;;;;;;69.13;29.70;;;;;;;4.22;100.00;94310.53;5061212;28;20071;-89
2023/03/01 06:53:29;;;;;;;71.68;30.58;;;;;;;4.29;100.00;94310.41;5061031;28;20032;-89
2023/03/01 06:55:56;;;;;;;69.78;30.02;;;;;;;4.23;100.00;94317.28;5077763;28;20029;-89
2023/03/01 06:58:21;;;;;;;73.32;31.17;;;;;;;4.03;100.00;94310.69;5074933;28;20410;-89
2023/03/01 07:00:47;;;;;;;65.57;29.65;;;;;;;4.17;100.00;94323.41;5097942;28;20024;-89
2023/03/01 07:03:12;;;;;;;66.57;28.75;;;;;;;4.01;100.00;94319.69;5081218;28;20700;-89
2023/03/01 07:05:38;;;;;;;72.25;31.05;;;;;;;4.21;100.00;94316.75;5097806;28;20063;-88
2023/03/01 07:08:03;;;;;;;63.33;28.13;;;;;;;4.59;100.00;94317.22;5097942;28;20039;-87
2023/03/01 07:10:29;;;;;;;65.72;27.92;;;;;;;3.58;100.00;94316.41;5089979;28;20051;-87
2023/03/01 07:12:55;;;;;;;62.80;28.30;;;;;;;4.48;100.00;94311.81;5077533;28;20028;-87
2023/03/01 07:15:21;;;;;;;65.30;29.20;;;;;;;4.09;100.00;94312.34;5077417;28;20025;-89
2023/03/01 07:17:49;;;;;;;60.72;26.95;;;;;;;4.04;100.00;94314.84;5077672;28;20028;-87
2023/03/01 07:20:15;;;;;;;59.22;25.70;;;;;;;3.87;100.00;94298.38;5078134;28;20031;-87
2023/03/01 07:22:42;;;;;;;57.90;26.08;;;;;;;4.42;100.00;94315.34;5060836;28;20028;-87
2023/03/01 07:25:08;;;;;;;55.85;25.65;;;;;;;4.39;100.00;94313.22;5061004;28;20036;-87
2023/03/01 07:27:33;;;;;;;51.95;23.95;;;;;;;4.67;100.00;94314.28;5077243;28;20077;-87
2023/03/01 07:29:59;;;;;;;50.30;23.00;;;;;;;4.77;100.00;94314.44;5076849;28;20033;-88
2023/03/01 07:32:24;;;;;;;48.33;23.08;;;;;;;4.70;100.00;94319.00;5077176;28;20484;-87
2023/03/01 07:34:51;;;;;;;48.00;23.52;;;;;;;4.53;100.00;94316.31;5077141;28;20036;-87
2023/03/01 07:37:16;;;;;;;46.53;22.20;;;;;;;4.37;100.00;94312.63;5060552;28;20035;-88
2023/03/01 07:39:42;;;;;;;48.72;22.50;;;;;;;4.43;100.00;94311.72;5060158;28;20106;-88
2023/03/01 07:42:07;;;;;;;51.40;22.63;;;;;;;4.28;100.00;94312.19;5060248;28;20035;-87
2023/03/01 07:44:34;;;;;;;49.22;22.83;;;;;;;4.71;100.00;94311.97;5060550;28;20346;-87
2023/03/01 07:47:00;;;;;;;49.03;22.98;;;;;;;4.64;100.00;94310.31;5077054;28;20033;-88
2023/03/01 07:49:26;;;;;;;47.83;22.02;;;;;;;4.28;100.00;94316.63;5076657;28;20430;-87
2023/03/01 07:51:52;;;;;;;41.20;20.08;;;;;;;3.74;100.00;94304.59;5060362;28;20028;-87
2023/03/01 07:54:17;;;;;;;44.78;21.38;;;;;;;4.00;100.00;94305.16;5076706;28;20085;-87
2023/03/01 07:56:43;;;;;;;43.33;20.45;;;;;;;3.89;100.00;94298.97;5076947;28;20039;-87
2023/03/01 07:59:09;;;;;;;44.35;21.15;;;;;;;3.96;100.00;94297.84;5076419;28;20434;-87
2023/03/01 08:01:34;;;;;;;42.60;20.35;;;;;;;4.20;100.00;94297.78;5077737;28;20028;-87
2023/03/01 08:03:59;;;;;;;44.53;21.17;;;;;;;3.96;100.00;94300.44;5060067;28;20025;-87
2023/03/01 08:06:25;;;;;;;42.67;20.10;;;;;;;4.73;100.00;94297.75;5076495;28;20078;-87
2023/03/01 08:08:50;;;;;;;44.05;21.13;;;;;;;3.70;100.00;94300.88;5076324;28;20428;-87
2023/03/01 08:11:16;;;;;;;41.05;19.67;;;;;;;3.87;100.00;94300.97;5060193;28;20458;-86
2023/03/01 08:13:42;;;;;;;44.35;19.83;;;;;;;4.18;100.00;94304.25;5076098;28;20028;-87
2023/03/01 08:16:11;;;;;;;42.30;20.67;;;;;;;3.96;100.00;94310.00;5059608;28;20028;-87
2023/03/01 08:18:37;;;;;;;42.08;20.48;;;;;;;4.34;100.00;94297.53;5075804;28;20051;-87
2023/03/01 08:21:04;;;;;;;41.85;20.77;;;;;;;4.67;100.00;94303.88;5075987;28;20025;-87
2023/03/01 08:23:30;;;;;;;39.90;19.23;;;;;;;4.36;100.00;94298.09;5075862;28;20032;-87
2023/03/01 08:26:06;;;;;;;37.50;18.23;;;;;;;4.13;100.00;94309.28;5059468;28;20021;-87
2023/03/01 08:28:31;;;;;;;42.03;19.92;;;;;;;4.57;100.00;94308.88;5077288;28;20048;-87
2023/03/01 08:30:57;;;;;;;40.58;18.92;;;;;;;3.95;100.00;94298.06;5059392;28;20125;-87
2023/03/01 08:33:22;;;;;;;37.50;18.10;;;;;;;4.09;100.00;94304.56;5075683;28;20031;-88
2023/03/01 08:35:48;;;;;;;37.78;17.05;;;;;;;3.64;100.00;94300.75;5076055;28;20345;-88
2023/03/01 08:38:13;;;;;;;34.80;17.63;;;;;;;4.70;100.00;94310.41;5075875;28;20035;-87
2023/03/01 08:40:38;;;;;;;39.33;18.42;;;;;;;4.76;100.00;94312.88;5075969;28;20417;-87
2023/03/01 08:43:04;;;;;;;37.40;17.77;;;;;;;4.86;100.00;94311.50;5077017;28;20077;-87
2023/03/01 08:45:29;;;;;;;38.03;19.27;;;;;;;4.79;100.00;94322.78;5059425;28;20024;-87
2023/03/01 08:47:55;;;;;;;34.45;17.17;;;;;;;4.90;100.00;94315.19;5075875;28;20024;-87
2023/03/01 08:50:20;;;;;;;35.50;18.63;;;;;;;5.37;100.00;94306.38;5076810;28;20341;-87
2023/03/01 08:52:46;;;;;;;32.70;16.90;;;;;;;5.19;100.00;94308.16;5059556;28;20025;-87
2023/03/01 08:55:11;;;;;;;36.47;18.25;;;;;;;5.35;100.00;94319.59;5075971;28;20020;-87
2023/03/01 08:57:37;;;;;;;35.47;16.98;;;;;;;4.90;100.00;94313.41;5059276;28;20425;-87
2023/03/01 09:00:03;;;;;;;31.80;16.92;;;;;;;4.19;100.00;94309.19;5076066;28;20025;-87
2023/03/01 09:02:30;;;;;;;36.33;18.20;;;;;;;4.49;100.00;94302.25;5076131;28;20059;-87
2023/03/01 09:04:55;;;;;;;36.53;18.63;;;;;;;4.75;100.00;94297.53;5059159;28;20024;-87
2023/03/01 09:07:20;;;;;;;36.97;17.85;;;;;;;4.54;100.00;94299.75;5076203;28;20051;-87
2023/03/01 09:09:46;;;;;;;33.05;17.13;;;;;;;4.24;100.00;94292.94;5075444;28;20043;-87
2023/03/01 09:12:11;;;;;;;35.55;17.40;;;;;;;4.45;100.00;94293.34;5075554;28;20062;-87
2023/03/01 09:14:38;;;;;;;33.15;17.23;;;;;;;4.22;100.00;94287.97;5076803;28;20367;-87
2023/03/01 09:17:04;;;;;;;33.33;17.17;;;;;;;4.13;100.00;94296.34;5075619;28;20028;-87
2023/03/01 09:19:30;;;;;;;34.67;17.65;;;;;;;4.97;100.00;94286.47;5059005;28;20406;-88
2023/03/01 09:21:55;;;;;;;31.17;15.95;;;;;;;4.26;100.00;94287.53;5059039;28;20048;-87
2023/03/01 09:24:23;;;;;;;33.40;16.02;;;;;;;4.35;100.00;94286.13;5075276;28;20028;-88
2023/03/01 09:26:48;;;;;;;29.90;15.13;;;;;;;4.57;100.00;94283.69;5075448;28;20178;-87
2023/03/01 09:29:15;;;;;;;29.00;15.27;;;;;;;4.22;100.00;94279.41;5075461;28;20058;-87
2023/03/01 09:31:41;;;;;;;27.42;14.02;;;;;;;4.15;100.00;94278.75;5075186;28;20027;-87
2023/03/01 09:34:07;;;;;;;26.05;14.50;;;;;;;4.48;100.00;94275.50;5075432;28;20020;-87
2023/03/01 09:36:33;;;;;;;33.45;14.40;;;;;;;5.01;100.00;94278.00;5075321;28;20035;-87
2023/03/01 09:38:59;;;;;;;27.65;13.93;;;;;;;4.73;100.00;94279.59;5058815;28;20333;-87
2023/03/01 09:41:44;;;;;;;24.83;13.50;;;;;;;4.13;100.00;94275.59;5075365;28;20017;-88
2023/03/01 09:44:36;;;;;;;30.30;15.60;;;;;;;5.22;100.00;94258.34;5078311;28;20085;-88
2023/03/01 09:47:03;;;;;;;27.55;13.95;;;;;;;4.72;100.00;94270.22;5063036;28;20129;-88
2023/03/01 09:49:31;;;;;;;28.48;14.90;;;;;;;5.02;100.00;94265.78;5079118;28;20050;-88
2023/03/01 09:52:14;;;;;;;27.60;15.07;;;;;;;4.98;100.00;94262.91;5078771;28;20020;-87
2023/03/01 09:54:39;;;;;;;29.50;16.27;;;;;;;4.43;100.00;94254.66;5078967;28;20025;-87
2023/03/01 09:57:30;;;;;;;29.25;15.73;;;;;;;5.03;100.00;94250.00;5078629;28;20027;-88
2023/03/01 10:00:03;;;;;;;28.35;14.88;;;;;;;4.89;100.00;94244.31;5078858;28;20089;-87
2023/03/01 10:02:35;;;;;;;24.45;13.68;;;;;;;4.75;100.00;94243.03;5079772;28;20074;-87
2023/03/01 10:05:19;;;;;;;27.90;15.10;;;;;;;4.91;100.00;94244.88;5079793;28;20032;-88
2023/03/01 10:07:47;;;;;;;29.25;14.48;;;;;;;5.06;100.00;94243.53;5078768;28;20024;-87
2023/03/01 10:10:36;;;;;;;29.40;14.60;;;;;;;5.17;100.00;94240.09;5078676;28;20500;-88
2023/03/01 10:13:31;;;;;;;29.23;15.95;;;;;;;4.89;100.00;94227.94;5062194;28;20434;-87
2023/03/01 10:16:03;;;;;;;30.15;16.05;;;;;;;4.50;100.00;94225.97;5061013;28;20043;-87
2023/03/01 10:18:31;;;;;;;29.60;15.55;;;;;;;4.23;100.00;94227.31;5078480;28;20024;-87
2023/03/01 10:21:01;;;;;;;29.00;16.58;;;;;;;4.92;100.00;94230.88;5062153;28;20025;-88
2023/03/01 10:23:30;;;;;;;33.17;17.10;;;;;;;5.18;100.00;94214.91;5078727;28;20024;-88
2023/03/01 10:26:26;;;;;;;30.88;16.95;;;;;;;4.79;100.00;94215.59;5078436;28;20430;-87
2023/03/01 10:29:09;;;;;;;30.08;16.80;;;;;;;5.50;100.00;94211.72;5078287;28;20024;-88
2023/03/01 10:31:47;;;;;;;31.20;16.23;;;;;;;5.12;100.00;94200.25;5061731;28;20139;-87
2023/03/01 10:34:14;;;;;;;30.30;16.55;;;;;;;5.81;100.00;94204.34;5061817;28;20119;-87
2023/03/01 10:36:40;;;;;;;31.25;16.83;;;;;;;5.46;100.00;94203.63;5078476;28;20315;-88
2023/03/01 10:39:16;;;;;;;28.55;15.68;;;;;;;5.88;100.00;94204.94;5061533;28;20032;-87
2023/03/01 10:42:03;;;;;;;29.05;15.52;;;;;;;4.51;100.00;94196.44;5078680;28;20082;-87
2023/03/01 10:44:48;;;;;;;28.23;14.73;;;;;;;4.87;100.00;94199.59;5078079;28;20020;-86
2023/03/01 10:47:17;;;;;;;26.80;14.15;;;;;;;4.17;100.00;94206.72;5067541;28;20087;-85
2023/03/01 10:50:01;;;;;;;25.17;13.52;;;;;;;4.86;100.00;94216.22;5049739;28;20036;-86
2023/03/01 10:52:29;;;;;;;27.70;14.73;;;;;;;5.51;100.00;94208.09;5058238;28;20028;-86
2023/03/01 10:55:20;;;;;;;25.88;13.90;;;;;;;5.55;100.00;94204.00;5060377;28;20024;-86
2023/03/01 10:57:46;;;;;;;25.83;14.15;;;;;;;6.31;100.00;94207.81;5071267;28;20500;-87
2023/03/01 11:00:20;;;;;;;25.88;13.65;;;;;;;4.67;100.00;94215.66;5061562;28;20028;-86
2023/03/01 11:02:51;;;;;;;26.83;13.85;;;;;;;5.61;100.00;94218.63;5077660;28;20056;-87
2023/03/01 11:05:25;;;;;;;26.08;14.32;;;;;;;5.76;100.00;94220.66;5061056;28;20024;-86
2023/03/01 11:07:56;;;;;;;24.75;13.85;;;;;;;5.64;100.00;94220.75;5061667;28;20024;-85
2023/03/01 11:10:24;;;;;;;25.17;13.93;;;;;;;5.75;100.00;94219.09;5060901;28;20078;-85
2023/03/01 11:12:51;;;;;;;23.20;13.55;;;;;;;5.33;100.00;94224.75;5060800;28;20025;-85
2023/03/01 11:15:35;;;;;;;54.00;14.65;;;;;;;5.87;100.00;94220.78;5060728;28;20127;-85
2023/03/01 11:18:01;;;;;;;22.55;13.45;;;;;;;5.23;100.00;94217.56;5060775;28;20032;-85
2023/03/01 11:20:35;;;;;;;27.30;14.95;;;;;;;5.59;100.00;94220.69;5074473;28;20430;-86